createdAt,value
2019-02-04T00:01:18.312Z,5.93
2019-02-04T00:03:45.964Z,5.37
2019-02-04T00:06:13.611Z,5.53
2019-02-04T00:08:41.313Z,5.37
2019-02-04T00:11:08.871Z,5.70
2019-02-04T00:13:36.448Z,5.40
2019-02-04T00:16:04.192Z,5.53
2019-02-04T00:18:31.851Z,5.43
2019-02-04T00:20:59.928Z,4.90
2019-02-04T00:23:27.794Z,4.63
2019-02-04T00:25:55.663Z,4.77
2019-02-04T00:28:23.228Z,4.13
2019-02-04T00:30:50.989Z,4.40
2019-02-04T00:33:18.657Z,4.20
2019-02-04T00:35:46.295Z,3.90
2019-02-04T00:38:14.296Z,3.80
2019-02-04T00:40:41.931Z,3.47
2019-02-04T00:43:09.718Z,3.20
2019-02-04T00:45:37.372Z,3.10
2019-02-04T00:48:05.563Z,3.52
2019-02-04T00:50:33.322Z,3.60
2019-02-04T00:53:01.406Z,3.33
2019-02-04T00:55:29.052Z,3.17
2019-02-04T00:57:56.717Z,3.30
2019-02-04T01:00:28.765Z,3.20
2019-02-04T01:02:56.444Z,3.30
2019-02-04T01:05:24.108Z,3.27
2019-02-04T01:07:51.775Z,3.63
2019-02-04T01:10:21.312Z,3.70
2019-02-04T01:12:48.841Z,4.43
2019-02-04T01:15:16.506Z,3.77
2019-02-04T01:17:44.175Z,3.30
2019-02-04T01:20:13.620Z,4.00
2019-02-04T01:22:41.339Z,3.73
2019-02-04T01:25:09.292Z,3.57
2019-02-04T01:27:36.981Z,3.97
2019-02-04T01:30:10.168Z,4.17
2019-02-04T01:32:37.835Z,4.37
2019-02-04T01:35:05.477Z,4.00
2019-02-04T01:37:33.260Z,3.80
2019-02-04T01:40:01.246Z,3.90
2019-02-04T01:42:28.892Z,3.77
2019-02-04T01:44:56.556Z,4.00
2019-02-04T01:47:24.204Z,3.87
2019-02-04T01:49:52.497Z,3.30
2019-02-04T01:52:20.269Z,3.73
2019-02-04T01:54:47.933Z,4.17
2019-02-04T01:57:15.912Z,3.97
2019-02-04T01:59:43.476Z,4.13
2019-02-04T02:02:11.128Z,3.47
2019-02-04T02:04:38.894Z,3.57
2019-02-04T02:07:06.570Z,3.87
2019-02-04T02:09:36.064Z,3.50
2019-02-04T02:12:03.518Z,3.70
2019-02-04T02:14:31.304Z,3.10
2019-02-04T02:16:59.055Z,3.50
2019-02-04T02:19:26.715Z,3.37
2019-02-04T02:21:54.658Z,3.27
2019-02-04T02:24:22.250Z,3.90
2019-02-04T02:26:50.008Z,3.07
2019-02-04T02:29:17.674Z,2.77
2019-02-04T02:43:48.511Z,2.17
2019-02-04T02:46:16.059Z,2.60
2019-02-04T02:48:44.057Z,2.73
2019-02-04T02:51:11.712Z,2.90
2019-02-04T02:53:39.264Z,2.50
2019-02-04T02:56:06.934Z,2.07
2019-02-04T02:58:34.711Z,2.47
2019-02-04T03:01:02.365Z,2.67
2019-02-04T03:03:30.131Z,2.10
2019-02-04T03:05:58.312Z,2.00
2019-02-04T03:08:25.995Z,2.03
2019-02-04T03:10:53.517Z,2.30
2019-02-04T03:13:21.297Z,2.23
2019-02-04T03:15:49.069Z,2.63
2019-02-04T03:18:16.657Z,1.80
2019-02-04T03:20:44.271Z,2.03
2019-02-04T03:23:12.055Z,2.20
2019-02-04T03:25:39.708Z,1.83
2019-02-04T03:28:07.381Z,2.30
2019-02-04T03:30:35.162Z,2.40
2019-02-04T03:33:02.818Z,2.13
2019-02-04T03:35:30.474Z,2.10
2019-02-04T03:37:58.541Z,2.37
2019-02-04T03:40:27.118Z,2.00
2019-02-04T03:42:54.902Z,2.47
2019-02-04T03:45:22.427Z,2.60
2019-02-04T03:47:49.977Z,2.17
2019-02-04T03:50:17.685Z,2.60
2019-02-04T03:52:45.448Z,2.40
2019-02-04T03:55:13.536Z,2.93
2019-02-04T03:57:41.172Z,2.70
2019-02-04T04:00:13.040Z,2.93
2019-02-04T04:02:40.813Z,3.07
2019-02-04T04:05:08.468Z,3.10
2019-02-04T04:07:36.243Z,3.13
2019-02-04T04:10:03.911Z,2.70
2019-02-04T04:12:31.566Z,2.90
2019-02-04T04:14:59.341Z,3.10
2019-02-04T04:17:26.996Z,3.27
2019-02-04T04:19:54.647Z,3.30
2019-02-04T04:22:22.435Z,3.23
2019-02-04T04:24:50.517Z,2.90
2019-02-04T04:27:18.075Z,3.70
2019-02-04T04:29:45.725Z,3.80
2019-02-04T04:32:13.388Z,4.03
2019-02-04T04:34:41.044Z,4.30
2019-02-04T04:37:08.725Z,4.30
2019-02-04T04:39:36.372Z,3.60
2019-02-04T04:42:05.191Z,5.28
2019-02-04T04:44:33.042Z,3.77
2019-02-04T04:47:00.920Z,5.23
2019-02-04T04:49:28.553Z,8.07
2019-02-04T04:51:56.335Z,5.23
2019-02-04T04:54:24.106Z,5.47
2019-02-04T04:56:51.780Z,4.27
2019-02-04T04:59:19.343Z,4.43
2019-02-04T05:01:46.971Z,4.50
2019-02-04T05:04:14.649Z,4.93
2019-02-04T05:06:42.422Z,4.90
2019-02-04T05:09:10.197Z,5.30
2019-02-04T05:11:37.844Z,4.73
2019-02-04T05:14:05.619Z,5.23
2019-02-04T05:16:33.277Z,4.87
2019-02-04T05:19:00.938Z,5.57
2019-02-04T05:21:28.491Z,5.20
2019-02-04T05:23:56.375Z,5.80
2019-02-04T05:26:24.141Z,7.03
2019-02-04T05:28:51.813Z,5.33
2019-02-04T05:31:19.652Z,6.40
2019-02-04T05:33:47.336Z,5.30
2019-02-04T05:36:14.911Z,5.30
2019-02-04T05:38:42.539Z,5.30
2019-02-04T05:41:10.226Z,6.00
2019-02-04T05:43:38.095Z,5.40
2019-02-04T05:46:05.624Z,5.00
2019-02-04T05:48:33.418Z,5.00
2019-02-04T05:51:01.068Z,5.93
2019-02-04T05:53:28.848Z,5.70
2019-02-04T05:55:56.500Z,5.40
2019-02-04T05:58:24.163Z,5.90
2019-02-04T06:00:51.819Z,6.47
2019-02-04T06:03:19.368Z,6.07
2019-02-04T06:05:47.074Z,6.37
2019-02-04T06:08:14.717Z,6.60
2019-02-04T06:10:42.380Z,6.77
2019-02-04T06:13:10.264Z,5.33
2019-02-04T06:15:42.099Z,5.77
2019-02-04T06:18:09.789Z,8.33
2019-02-04T06:20:37.631Z,8.93
2019-02-04T06:23:05.305Z,7.87
2019-02-04T06:25:32.879Z,8.30
2019-02-04T06:28:00.542Z,6.90
2019-02-04T06:30:28.300Z,6.50
2019-02-04T06:32:55.964Z,6.07
2019-02-04T06:35:23.612Z,7.90
2019-02-04T06:37:51.291Z,6.47
2019-02-04T06:40:19.057Z,7.50
2019-02-04T06:42:46.703Z,7.03
2019-02-04T06:45:16.094Z,7.53
2019-02-04T06:47:43.800Z,7.00
2019-02-04T06:50:12.985Z,49.17
2019-02-04T06:52:40.829Z,15.23
2019-02-04T06:55:09.973Z,8.83
2019-02-04T06:57:37.652Z,49.00
2019-02-04T07:00:07.026Z,39.07
2019-02-04T07:02:34.686Z,27.13
2019-02-04T07:05:02.357Z,27.03
2019-02-04T07:07:30.012Z,23.10
2019-02-04T07:09:57.679Z,28.33
2019-02-04T07:12:25.549Z,17.17
2019-02-04T07:14:53.217Z,17.90
2019-02-04T07:17:21.034Z,13.83
2019-02-04T07:19:48.841Z,8.53
2019-02-04T07:22:16.504Z,9.73
2019-02-04T07:24:44.272Z,10.93
2019-02-04T07:27:11.939Z,10.33
2019-02-04T07:29:39.541Z,11.40
2019-02-04T07:32:07.471Z,12.30
2019-02-04T07:34:35.231Z,12.53
2019-02-04T07:37:02.880Z,30.83
2019-02-04T07:39:30.524Z,26.83
2019-02-04T07:41:58.222Z,26.20
2019-02-04T07:44:26.409Z,12.83
2019-02-04T07:46:54.164Z,20.30
2019-02-04T07:49:21.845Z,18.40
2019-02-04T07:51:50.459Z,11.60
2019-02-04T07:54:18.385Z,15.50
2019-02-04T08:43:24.494Z,14.80
2019-02-04T08:45:52.150Z,47.43
2019-02-04T08:48:19.923Z,38.53
2019-02-04T08:50:47.690Z,12.40
2019-02-04T08:53:16.270Z,8.60
2019-02-04T08:55:43.937Z,8.53
2019-02-04T08:58:11.605Z,7.07
2019-02-04T09:00:39.208Z,8.23
2019-02-04T09:03:06.924Z,8.20
2019-02-04T09:05:34.585Z,7.87
2019-02-04T09:08:02.892Z,8.27
2019-02-04T09:10:31.740Z,8.20
2019-02-04T09:12:59.524Z,7.67
2019-02-04T09:27:53.610Z,6.97
2019-02-04T09:30:22.214Z,8.30
2019-02-04T09:32:49.961Z,8.07
2019-02-04T09:35:18.338Z,9.83
2019-02-04T09:37:45.992Z,17.67
2019-02-04T09:40:15.387Z,18.20
2019-02-04T09:42:44.403Z,14.63
2019-02-04T09:45:13.910Z,19.03
2019-02-04T09:50:52.137Z,14.43
2019-02-04T09:53:19.736Z,12.50
2019-02-04T09:55:47.470Z,12.90
2019-02-04T09:58:15.344Z,16.67
2019-02-04T10:00:42.983Z,16.90
2019-02-04T10:03:10.567Z,23.03
2019-02-04T10:05:38.229Z,19.03
2019-02-04T10:08:06.293Z,13.43
2019-02-04T10:10:34.065Z,17.10
2019-02-04T10:13:01.713Z,17.60
2019-02-04T10:15:31.028Z,17.10
2019-02-04T10:17:58.690Z,12.80
2019-02-04T10:20:33.407Z,12.20
2019-02-04T10:22:55.789Z,11.57
2019-02-04T10:25:50.463Z,10.70
2019-02-04T10:31:27.371Z,15.00
2019-02-04T10:33:55.056Z,12.77
2019-02-04T10:36:22.790Z,11.53
2019-02-04T10:38:50.454Z,13.80
2019-02-04T10:41:18.252Z,18.83
2019-02-04T10:43:45.958Z,11.60
2019-02-04T10:46:13.790Z,18.63
2019-02-04T10:48:41.539Z,23.20
2019-02-04T10:51:09.176Z,23.60
2019-02-04T10:53:36.827Z,21.57
2019-02-04T10:56:05.403Z,11.05
2019-02-04T10:58:33.208Z,11.23
2019-02-04T11:01:00.868Z,10.00
2019-02-04T11:03:28.670Z,9.80
2019-02-04T11:05:56.507Z,13.60
2019-02-04T11:08:24.160Z,10.67
2019-02-04T11:10:51.811Z,10.40
2019-02-04T11:13:19.481Z,12.43
2019-02-04T11:15:47.266Z,10.80
2019-02-04T11:18:15.333Z,10.43
2019-02-04T11:20:43.227Z,9.60
2019-02-04T11:23:17.235Z,11.57
2019-02-04T11:25:44.892Z,12.10
2019-02-04T11:28:12.576Z,11.63
2019-02-04T11:30:47.204Z,13.10
2019-02-04T11:33:14.829Z,12.13
2019-02-04T11:35:42.607Z,10.57
2019-02-04T11:38:10.231Z,10.93
2019-02-04T11:40:38.614Z,10.70
2019-02-04T11:43:06.639Z,11.83
2019-02-04T11:45:34.260Z,11.93
2019-02-04T11:48:02.111Z,12.63
2019-02-04T11:50:29.753Z,14.13
2019-02-04T11:52:57.558Z,15.30
2019-02-04T11:55:25.208Z,13.77
2019-02-04T11:57:52.767Z,16.60
2019-02-04T12:00:41.954Z,18.13
2019-02-04T12:03:10.638Z,13.93
2019-02-04T12:05:38.411Z,21.03
2019-02-04T12:08:06.168Z,16.43
2019-02-04T12:10:35.277Z,14.83
2019-02-04T12:13:03.097Z,14.00
2019-02-04T12:15:30.773Z,13.70
2019-02-04T12:17:58.308Z,14.87
2019-02-04T12:20:25.949Z,14.77
2019-02-04T12:22:53.571Z,12.73
2019-02-04T12:25:22.579Z,13.80
2019-02-04T12:27:50.246Z,13.17
2019-02-04T12:30:19.427Z,13.80
2019-02-04T12:32:47.226Z,13.70
2019-02-04T12:35:14.856Z,15.20
2019-02-04T12:38:08.455Z,16.87
2019-02-04T12:40:36.417Z,15.87
2019-02-04T12:43:03.965Z,14.10
2019-02-04T12:45:33.160Z,14.73
2019-02-04T12:48:01.114Z,14.63
2019-02-04T12:50:28.909Z,18.47
2019-02-04T12:52:56.572Z,16.13
2019-02-04T12:55:25.906Z,17.23
2019-02-04T12:57:53.649Z,18.00
2019-02-04T13:00:22.135Z,17.67
2019-02-04T13:02:49.788Z,17.17
2019-02-04T13:05:19.088Z,19.33
2019-02-04T13:07:46.757Z,18.47
2019-02-04T13:10:15.762Z,19.90
2019-02-04T13:12:43.614Z,16.93
2019-02-04T13:15:12.917Z,15.27
2019-02-04T13:17:40.574Z,15.33
2019-02-04T13:20:09.576Z,15.70
2019-02-04T13:22:37.336Z,16.27
2019-02-04T13:25:06.637Z,18.13
2019-02-04T13:27:34.328Z,19.40
2019-02-04T13:30:01.985Z,16.83
2019-02-04T13:32:29.568Z,16.47
2019-02-04T13:34:57.205Z,19.03
2019-02-04T13:37:24.863Z,16.60
2019-02-04T13:39:52.530Z,16.63
2019-02-04T13:42:20.290Z,17.77
2019-02-04T13:44:48.262Z,16.83
2019-02-04T13:47:16.024Z,18.90
2019-02-04T13:49:43.898Z,16.47
2019-02-04T13:52:11.593Z,20.57
2019-02-04T13:54:39.169Z,20.17
2019-02-04T13:57:06.877Z,19.00
2019-02-04T13:59:34.559Z,16.17
2019-02-04T14:02:02.206Z,16.43
2019-02-04T14:04:29.872Z,15.83
2019-02-04T14:06:57.536Z,14.70
2019-02-04T14:09:25.614Z,18.30
2019-02-04T14:11:53.268Z,16.37
2019-02-04T14:14:20.941Z,14.80
2019-02-04T14:16:48.994Z,14.07
2019-02-04T14:19:16.678Z,11.97
2019-02-04T14:21:44.440Z,13.33
2019-02-04T14:24:12.107Z,16.90
2019-02-04T14:26:39.777Z,14.00
2019-02-04T14:29:07.634Z,12.17
2019-02-04T14:31:35.460Z,12.80
2019-02-04T14:34:03.164Z,13.47
2019-02-04T14:36:31.039Z,14.47
2019-02-04T14:38:58.692Z,12.83
2019-02-04T14:41:26.369Z,14.27
2019-02-04T14:43:54.243Z,15.83
2019-02-04T14:46:26.399Z,13.50
2019-02-04T14:49:05.146Z,14.50
2019-02-04T14:51:34.412Z,13.63
2019-02-04T14:54:09.660Z,13.57
2019-02-04T14:56:51.239Z,14.53
2019-02-04T14:59:20.561Z,15.70
2019-02-04T15:02:02.149Z,15.33
2019-02-04T15:04:40.669Z,13.87
2019-02-04T15:07:22.158Z,15.03
2019-02-04T15:10:08.129Z,15.50
2019-02-04T15:15:47.163Z,14.33
2019-02-04T15:18:16.409Z,15.10
2019-02-04T15:20:46.116Z,16.50
2019-02-04T15:23:15.406Z,18.07
2019-02-04T15:25:50.761Z,32.13
2019-02-04T15:28:25.898Z,33.70
2019-02-04T15:30:55.714Z,35.73
2019-02-04T15:33:31.064Z,43.53
2019-02-04T15:36:12.327Z,40.97
2019-02-04T15:38:44.486Z,26.67
2019-02-04T15:41:16.566Z,23.27
2019-02-04T15:43:57.849Z,14.80
2019-02-04T15:46:29.932Z,34.33
2019-02-04T15:49:15.691Z,38.33
2019-02-04T15:51:45.013Z,47.23
2019-02-04T15:54:12.677Z,40.97
2019-02-04T15:56:40.438Z,29.23
2019-02-04T15:59:08.210Z,46.03
2019-02-04T16:01:46.974Z,45.23
2019-02-04T16:04:28.197Z,34.73
2019-02-04T16:06:55.863Z,29.10
2019-02-04T16:09:23.536Z,40.20
2019-02-04T16:12:27.740Z,53.53
2019-02-04T16:14:55.423Z,35.47
2019-02-04T16:17:23.024Z,29.67
2019-02-04T16:19:53.404Z,31.60
2019-02-04T16:22:20.148Z,68.87
2019-02-04T16:24:47.846Z,65.03
2019-02-04T16:27:15.478Z,63.17
2019-02-04T16:29:43.350Z,67.40
2019-02-04T16:32:11.119Z,81.63
2019-02-04T16:34:38.763Z,44.07
2019-02-04T16:37:06.450Z,43.33
2019-02-04T16:39:34.048Z,36.63
2019-02-04T16:42:02.396Z,39.77
2019-02-04T16:44:30.155Z,43.20
2019-02-04T16:46:57.753Z,45.97
2019-02-04T16:49:25.582Z,44.63
2019-02-04T16:51:53.227Z,28.40
2019-02-04T16:54:20.905Z,39.47
2019-02-04T16:56:48.564Z,27.30
2019-02-04T16:59:16.641Z,28.03
2019-02-04T17:01:44.306Z,29.60
2019-02-04T17:04:12.173Z,30.03
2019-02-04T17:06:39.944Z,36.30
2019-02-04T17:09:07.915Z,43.23
2019-02-04T17:11:36.793Z,25.70
2019-02-04T17:14:05.489Z,25.88
2019-02-04T17:16:33.469Z,23.10
2019-02-04T17:19:01.226Z,22.20
2019-02-04T17:21:28.833Z,21.20
2019-02-04T17:23:56.462Z,23.37
2019-02-04T17:26:24.126Z,22.97
2019-02-04T17:28:51.885Z,21.73
2019-02-04T17:31:21.063Z,20.80
2019-02-04T17:33:48.919Z,22.63
2019-02-04T17:36:16.713Z,22.97
2019-02-04T17:38:44.484Z,24.47
2019-02-04T17:41:12.246Z,25.93
2019-02-04T17:43:39.905Z,31.37
2019-02-04T17:46:07.676Z,32.57
2019-02-04T17:48:35.548Z,25.03
2019-02-04T17:51:03.320Z,28.00
2019-02-04T17:53:34.370Z,25.93
2019-02-04T17:58:31.449Z,20.83
2019-02-04T18:00:59.703Z,20.33
2019-02-04T18:03:27.448Z,20.17
2019-02-04T18:05:55.665Z,19.80
2019-02-04T18:08:23.301Z,19.63
2019-02-04T18:10:50.847Z,20.90
2019-02-04T18:13:18.636Z,21.57
2019-02-04T18:15:47.399Z,22.87
2019-02-04T18:18:15.498Z,20.63
2019-02-04T18:20:43.573Z,20.83
2019-02-04T18:23:11.436Z,27.77
2019-02-04T18:25:39.105Z,27.47
2019-02-04T18:28:06.971Z,23.43
2019-02-04T18:30:35.067Z,21.50
2019-02-04T18:33:02.710Z,22.47
2019-02-04T18:35:30.453Z,21.60
2019-02-04T18:37:58.044Z,24.70
2019-02-04T18:40:26.011Z,20.30
2019-02-04T18:42:54.189Z,19.03
2019-02-04T18:45:24.634Z,18.83
2019-02-04T18:47:52.371Z,20.20
2019-02-04T18:50:20.859Z,19.17
2019-02-04T18:52:49.031Z,17.07
2019-02-04T18:55:21.243Z,16.17
2019-02-04T18:57:48.859Z,15.67
2019-02-04T19:00:21.030Z,16.03
2019-02-04T19:02:48.694Z,17.47
2019-02-04T19:05:18.541Z,15.73
2019-02-04T19:07:48.089Z,16.27
2019-02-04T19:10:17.013Z,15.53
2019-02-04T19:12:44.672Z,16.03
2019-02-04T19:15:15.903Z,15.97
2019-02-04T19:17:43.576Z,17.73
2019-02-04T19:20:12.876Z,18.80
2019-02-04T19:22:40.531Z,22.73
2019-02-04T19:25:09.794Z,32.20
2019-02-04T19:27:37.516Z,24.67
2019-02-04T19:30:07.024Z,24.37
2019-02-04T19:32:34.685Z,23.63
2019-02-04T19:35:02.449Z,25.10
2019-02-04T19:37:30.292Z,24.97
2019-02-04T19:39:57.980Z,24.23
2019-02-04T19:42:25.749Z,22.77
2019-02-04T19:44:53.414Z,20.73
2019-02-04T19:47:21.276Z,25.53
2019-02-04T19:49:49.056Z,27.90
2019-02-04T19:52:16.917Z,25.80
2019-02-04T19:54:44.968Z,26.03
2019-02-04T19:57:12.762Z,33.77
2019-02-04T19:59:40.521Z,33.43
2019-02-04T20:02:08.088Z,32.40
2019-02-04T20:04:35.728Z,42.03
2019-02-04T20:07:03.512Z,42.50
2019-02-04T20:09:31.491Z,46.00
2019-02-04T20:11:59.635Z,35.53
2019-02-04T20:14:27.527Z,33.77
2019-02-04T20:16:55.690Z,48.23
2019-02-04T20:19:23.769Z,55.67
2019-02-04T20:21:51.395Z,32.20
2019-02-04T20:24:19.002Z,28.63
2019-02-04T20:26:46.867Z,28.10
2019-02-04T20:29:14.607Z,28.47
2019-02-04T20:31:42.189Z,38.97
2019-02-04T20:34:09.848Z,31.60
2019-02-04T20:36:37.428Z,48.63
2019-02-04T20:39:06.824Z,42.50
2019-02-04T20:41:35.665Z,40.67
2019-02-04T20:44:03.318Z,37.47
2019-02-04T20:46:31.446Z,37.33
2019-02-04T20:48:59.129Z,32.57
2019-02-04T20:51:26.875Z,26.57
2019-02-04T20:53:54.661Z,23.30
2019-02-04T20:56:22.300Z,31.30
2019-02-04T20:59:02.053Z,26.60
2019-02-04T21:01:29.716Z,25.20
2019-02-04T21:03:57.390Z,27.30
2019-02-04T21:06:25.150Z,23.73
2019-02-04T21:08:52.804Z,20.93
2019-02-04T21:11:20.384Z,18.13
2019-02-04T21:13:48.447Z,16.90
2019-02-04T21:16:16.204Z,68.10
2019-02-04T21:18:43.859Z,194.43
2019-02-04T21:21:11.638Z,147.60
2019-02-04T21:23:39.404Z,116.23
2019-02-04T21:26:07.188Z,20.37
2019-02-04T21:28:34.838Z,17.07
2019-02-04T21:31:02.336Z,18.10
2019-02-04T21:33:30.059Z,17.70
2019-02-04T21:35:57.726Z,29.03
2019-02-04T21:38:25.733Z,27.13
2019-02-04T21:40:53.872Z,25.03
2019-02-04T21:43:21.534Z,17.10
2019-02-04T21:45:49.295Z,15.00
2019-02-04T21:48:17.062Z,16.70
2019-02-04T21:50:44.728Z,15.90
2019-02-04T21:53:13.213Z,13.63
2019-02-04T21:55:41.078Z,14.80
2019-02-04T21:58:08.745Z,15.37
2019-02-04T22:00:37.428Z,16.10
2019-02-04T22:03:05.052Z,16.43
2019-02-04T22:05:33.635Z,19.33
2019-02-04T22:08:01.749Z,13.10
2019-02-04T22:10:30.375Z,9.50
2019-02-04T22:12:58.412Z,11.50
2019-02-04T22:15:26.068Z,12.10
2019-02-04T22:17:53.842Z,14.10
2019-02-04T22:20:21.607Z,15.23
2019-02-04T22:22:49.263Z,11.50
2019-02-04T22:25:19.614Z,9.20
2019-02-04T22:27:47.984Z,8.80
2019-02-04T22:30:16.664Z,13.47
2019-02-04T22:32:44.276Z,14.50
2019-02-04T22:35:12.204Z,10.87
2019-02-04T22:37:39.967Z,12.33
2019-02-04T22:40:09.071Z,11.73
2019-02-04T22:42:37.215Z,11.40
2019-02-04T22:45:06.415Z,10.67
2019-02-04T22:47:34.000Z,11.90
2019-02-04T22:50:01.868Z,11.67
2019-02-04T22:52:29.466Z,9.53
2019-02-04T22:54:57.292Z,9.73
2019-02-04T22:57:25.161Z,11.20
2019-02-04T22:59:53.234Z,10.63
2019-02-04T23:02:20.889Z,10.00
2019-02-04T23:04:48.561Z,10.43
2019-02-04T23:07:16.212Z,11.30
2019-02-04T23:09:43.901Z,10.90
2019-02-04T23:12:11.531Z,10.10
2019-02-04T23:14:39.333Z,9.77
2019-02-04T23:17:06.892Z,10.13
2019-02-04T23:19:34.546Z,10.97
2019-02-04T23:22:02.311Z,9.50
2019-02-04T23:24:30.069Z,9.77
2019-02-04T23:26:57.715Z,9.90
2019-02-04T23:29:25.492Z,9.60
2019-02-04T23:31:53.557Z,9.00
2019-02-04T23:34:21.345Z,9.67
2019-02-04T23:36:49.113Z,9.77
2019-02-04T23:39:16.874Z,8.90
2019-02-04T23:41:44.445Z,10.00
2019-02-04T23:44:30.838Z,8.23
2019-02-04T23:46:58.604Z,9.50
2019-02-04T23:49:26.254Z,9.70
2019-02-04T23:51:53.912Z,10.33
2019-02-04T23:54:22.209Z,9.43
2019-02-04T23:56:49.969Z,9.80
2019-02-04T23:59:17.740Z,9.67
